Aérodrome :
LOGIN :

S'inscrire | Disclaimer

   EN    FR    IT 

 










Légende :    VFR   VFR Marginal   IFR   IFR Intensif   IFR Très Intensif
Visi : 
Plafond : 
>= 8 km
>= 3000ft
5 à 8 km
1000 à 3000 ft
1500m à 5 km
500 à 1000 ft
800 à 1500m
200 à 500 ft
< 800m
< 200 ft
Symboles :   Orages  Brouillard  Fortes neiges  Fortes précipitations  Vent > 20 kt
SIGMETs :   Divers  Orages  Givrage  Turbulence  Onde Orograph.  Cendres Volcan.






- Altitude de l'aérodrome : 53 ft
- Code IATA : HAM


EDDH - Hamburg

DERNIER METAR :
  • 151420Z 31003KT 260V010 CAVOK 20/14 Q1005 NOSIG

METARs EXPIRÉS :
  • 151350Z 31005KT 280V010 CAVOK 21/14 Q1005 NOSIG
  • 151320Z 30004KT 260V340 CAVOK 21/14 Q1005 NOSIG
  • 151250Z 29004KT 230V320 CAVOK 21/14 Q1005 NOSIG
  • 151220Z 29007KT 250V320 CAVOK 20/14 Q1005 NOSIG
  • 151150Z 29005KT 240V340 CAVOK 20/14 Q1005 NOSIG

TAF COR TAF EDDH
Valide du 15 à 12h jusqu'au 16 à 18h UTC


151112Z 1512/1618 23005KT CAVOK
BECMG 1512/1514 VRB03KT
BECMG 1522/1601 27007KT BKN013
PROB40
TEMPO 1522/1524 3500 SHRA BKN007 BKN013CB
TEMPO 1600/1609 3500 -RADZ BKN007
PROB30
TEMPO 1600/1608 2500 RA BKN003
BECMG 1610/1613 SCT013 BKN020



MET'MAP, la Météo Aéronautique d'un coup d'oeil ! - Copyright ORBIFLY Décembre 2007 - Disclaimer

ORBIFLY MET'MAP TEAM :

Programmation & Développement : Alexandra Zaïnal
Conception & Développement : Baudouin d'Aumeries
Co-Programmation & Développement : Marc-Olivier Méhu
Soutien technique & logistique : Manuel Goepfert

Contact : metmap@orbifly.com




SOURCES & CREDITS :

   NOAA